createdAt,value
2024-03-16T00:01:42.991Z,11.50
2024-03-16T00:04:11.607Z,11.85
2024-03-16T00:06:41.222Z,12.07
2024-03-16T00:09:09.131Z,10.45
2024-03-16T00:11:38.628Z,9.88
2024-03-16T00:14:07.013Z,9.23
2024-03-16T00:16:33.888Z,12.80
2024-03-16T00:19:05.098Z,14.25
2024-03-16T00:21:32.273Z,30.77
2024-03-16T00:23:59.005Z,11.77
2024-03-16T00:26:26.556Z,13.25
2024-03-16T00:28:53.845Z,11.20
2024-03-16T00:31:21.240Z,11.60
2024-03-16T00:33:48.567Z,11.50
2024-03-16T00:36:19.006Z,10.93
2024-03-16T00:38:51.323Z,10.35
2024-03-16T00:41:18.721Z,14.48
2024-03-16T00:43:46.133Z,16.30
2024-03-16T00:46:13.917Z,12.07
2024-03-16T00:48:41.011Z,12.88
2024-03-16T00:51:08.542Z,11.65
2024-03-16T00:53:38.207Z,14.38
2024-03-16T00:56:05.454Z,17.98
2024-03-16T00:58:33.554Z,13.18
2024-03-16T01:01:00.571Z,17.67
2024-03-16T01:03:27.503Z,16.83
2024-03-16T01:05:54.451Z,16.70
2024-03-16T01:08:23.487Z,14.63
2024-03-16T01:10:56.191Z,17.35
2024-03-16T01:13:25.585Z,17.07
2024-03-16T01:15:53.249Z,15.27
2024-03-16T01:18:20.457Z,16.90
2024-03-16T01:20:48.415Z,15.60
2024-03-16T01:23:18.758Z,15.90
2024-03-16T01:25:45.971Z,17.42
2024-03-16T01:28:14.405Z,28.95
2024-03-16T01:30:41.539Z,18.83
2024-03-16T01:33:08.363Z,20.00
2024-03-16T01:35:35.507Z,19.48
2024-03-16T01:38:02.563Z,19.80
2024-03-16T01:40:33.726Z,19.90
2024-03-16T01:43:04.992Z,18.52
2024-03-16T01:45:33.515Z,17.88
2024-03-16T01:48:04.676Z,17.15
2024-03-16T01:50:31.816Z,19.88
2024-03-16T01:52:59.122Z,19.10
2024-03-16T01:55:28.143Z,16.98
2024-03-16T01:57:57.122Z,17.85
2024-03-16T02:00:24.291Z,18.25
2024-03-16T02:02:52.504Z,22.85
2024-03-16T02:05:21.029Z,18.30
2024-03-16T02:07:52.514Z,20.50
2024-03-16T02:10:19.840Z,23.70
2024-03-16T02:12:49.055Z,29.67
2024-03-16T02:15:19.429Z,20.85
2024-03-16T02:17:51.712Z,20.42
2024-03-16T02:20:21.141Z,20.08
2024-03-16T02:22:49.341Z,21.55
2024-03-16T02:25:19.348Z,21.27
2024-03-16T02:27:46.708Z,21.15
2024-03-16T02:30:16.095Z,20.75
2024-03-16T02:32:43.450Z,19.70
2024-03-16T02:35:10.565Z,20.40
2024-03-16T02:37:38.469Z,20.60
2024-03-16T02:40:07.561Z,21.42
2024-03-16T02:42:36.747Z,23.27
2024-03-16T02:45:05.328Z,22.55
2024-03-16T02:47:36.377Z,27.13
2024-03-16T02:50:06.494Z,25.42
2024-03-16T02:52:35.419Z,25.98
2024-03-16T02:55:02.422Z,25.75
2024-03-16T02:57:29.764Z,26.63
2024-03-16T02:59:58.836Z,26.45
2024-03-16T03:02:27.901Z,27.88
2024-03-16T03:04:55.749Z,27.60
2024-03-16T03:07:22.708Z,28.52
2024-03-16T03:09:50.819Z,27.92
2024-03-16T03:12:17.614Z,28.38
2024-03-16T03:14:44.538Z,30.67
2024-03-16T03:17:12.058Z,30.73
2024-03-16T03:19:39.023Z,28.92
2024-03-16T03:22:06.605Z,29.02
2024-03-16T03:24:33.525Z,29.40
2024-03-16T03:27:01.886Z,29.42
2024-03-16T03:29:28.839Z,28.33
2024-03-16T03:31:58.415Z,29.65
2024-03-16T03:34:27.420Z,31.05
2024-03-16T03:36:54.330Z,30.17
2024-03-16T03:39:21.340Z,31.52
2024-03-16T03:41:52.219Z,30.85
2024-03-16T03:44:25.508Z,31.52
2024-03-16T03:46:53.321Z,32.60
2024-03-16T03:49:33.287Z,31.80
2024-03-16T03:52:05.468Z,31.50
2024-03-16T03:54:36.150Z,31.35
2024-03-16T03:57:05.595Z,45.25
2024-03-16T03:59:32.699Z,52.25
2024-03-16T04:02:00.720Z,38.70
2024-03-16T04:04:27.733Z,35.10
2024-03-16T04:06:54.524Z,32.47
2024-03-16T04:09:21.497Z,31.92
2024-03-16T04:11:49.945Z,37.28
2024-03-16T04:14:17.070Z,32.97
2024-03-16T04:16:44.317Z,35.92
2024-03-16T04:19:11.637Z,33.25
2024-03-16T04:21:39.935Z,48.53
2024-03-16T04:24:07.101Z,41.47
2024-03-16T04:26:33.932Z,37.38
2024-03-16T04:29:00.827Z,36.67
2024-03-16T04:31:32.235Z,34.90
2024-03-16T04:33:59.413Z,33.53
2024-03-16T04:36:27.497Z,33.53
2024-03-16T04:38:54.824Z,34.13
2024-03-16T04:41:23.897Z,35.60
2024-03-16T04:43:51.413Z,36.10
2024-03-16T04:46:18.745Z,33.72
2024-03-16T04:48:45.581Z,33.63
2024-03-16T04:51:16.099Z,30.25
2024-03-16T04:53:44.148Z,35.42
2024-03-16T04:56:11.046Z,39.63
2024-03-16T04:58:38.057Z,33.78
2024-03-16T05:01:10.680Z,35.03
2024-03-16T05:03:40.985Z,36.00
2024-03-16T05:06:08.058Z,36.47
2024-03-16T05:08:39.123Z,37.83
2024-03-16T05:11:06.066Z,35.22
2024-03-16T05:13:35.058Z,35.25
2024-03-16T05:16:08.066Z,49.17
2024-03-16T05:18:35.215Z,82.78
2024-03-16T05:21:03.099Z,35.72
2024-03-16T05:23:30.052Z,41.92
2024-03-16T05:26:01.456Z,45.30
2024-03-16T05:28:28.669Z,35.58
2024-03-16T05:30:56.156Z,34.08
2024-03-16T05:33:23.496Z,41.15
2024-03-16T05:35:51.459Z,35.45
2024-03-16T05:38:18.261Z,39.67
2024-03-16T05:40:47.385Z,34.33
2024-03-16T05:43:14.565Z,62.17
2024-03-16T05:45:42.709Z,35.88
2024-03-16T05:48:13.616Z,37.92
2024-03-16T05:50:40.766Z,32.38
2024-03-16T05:53:07.900Z,37.95
2024-03-16T05:55:34.756Z,36.40
2024-03-16T05:58:01.852Z,34.15
2024-03-16T06:00:28.807Z,34.08
2024-03-16T06:02:57.896Z,32.38
2024-03-16T06:05:24.715Z,32.83
2024-03-16T06:07:51.635Z,31.73
2024-03-16T06:10:18.798Z,27.70
2024-03-16T06:12:47.153Z,28.03
2024-03-16T06:15:16.141Z,26.15
2024-03-16T06:17:43.134Z,29.00
2024-03-16T06:20:14.764Z,39.08
2024-03-16T06:22:42.421Z,32.40
2024-03-16T06:25:11.952Z,26.42
2024-03-16T06:27:44.577Z,25.48
2024-03-16T06:30:14.254Z,22.70
2024-03-16T06:32:56.764Z,20.13
2024-03-16T06:35:23.833Z,16.35
2024-03-16T06:37:51.881Z,14.13
2024-03-16T06:40:18.849Z,11.65
2024-03-16T06:42:45.936Z,11.77
2024-03-16T06:45:13.891Z,10.98
2024-03-16T06:47:40.914Z,13.38
2024-03-16T06:50:08.536Z,15.32
2024-03-16T06:52:35.553Z,12.85
2024-03-16T06:55:02.640Z,10.43
2024-03-16T06:57:31.678Z,10.50
2024-03-16T06:59:58.537Z,14.32
2024-03-16T07:02:26.889Z,14.30
2024-03-16T07:04:54.022Z,9.80
2024-03-16T07:07:22.069Z,11.52
2024-03-16T07:09:49.084Z,10.55
2024-03-16T07:12:16.571Z,10.65
2024-03-16T07:14:44.920Z,16.08
2024-03-16T07:17:12.046Z,20.40
2024-03-16T07:19:39.675Z,22.73
2024-03-16T07:22:06.908Z,11.63
2024-03-16T07:24:33.986Z,7.30
2024-03-16T07:27:01.372Z,7.40
2024-03-16T07:29:29.441Z,8.73
2024-03-16T07:31:56.706Z,8.85
2024-03-16T07:34:24.023Z,6.45
2024-03-16T07:36:50.961Z,7.00
2024-03-16T07:39:19.952Z,7.10
2024-03-16T07:41:46.888Z,6.68
2024-03-16T07:44:14.256Z,7.57
2024-03-16T07:46:41.315Z,6.18
2024-03-16T07:49:10.419Z,5.97
2024-03-16T07:51:38.901Z,5.60
2024-03-16T07:54:10.151Z,7.15
2024-03-16T07:56:41.080Z,6.18
2024-03-16T07:59:10.952Z,6.85
2024-03-16T08:01:38.522Z,5.47
2024-03-16T08:04:07.926Z,6.60
2024-03-16T08:06:36.395Z,5.57
2024-03-16T08:09:03.656Z,5.00
2024-03-16T08:11:31.485Z,5.03
2024-03-16T08:14:01.075Z,5.45
2024-03-16T08:16:28.978Z,5.65
2024-03-16T08:18:55.954Z,6.63
2024-03-16T08:21:25.968Z,5.00
2024-03-16T08:23:52.878Z,5.85
2024-03-16T08:26:20.940Z,5.00
2024-03-16T08:28:47.888Z,4.68
2024-03-16T08:31:18.768Z,5.10
2024-03-16T08:33:46.910Z,4.82
2024-03-16T08:36:16.377Z,5.00
2024-03-16T08:38:45.438Z,4.80
2024-03-16T08:41:13.294Z,4.15
2024-03-16T08:43:41.259Z,4.20
2024-03-16T08:46:11.516Z,4.55
2024-03-16T08:48:38.748Z,4.40
2024-03-16T08:51:06.033Z,4.55
2024-03-16T08:53:36.121Z,5.00
2024-03-16T08:56:07.990Z,4.00
2024-03-16T08:58:37.422Z,5.68
2024-03-16T09:01:04.485Z,4.43
2024-03-16T09:03:35.715Z,4.18
2024-03-16T09:06:02.945Z,3.45
2024-03-16T09:08:32.254Z,3.00
2024-03-16T09:10:59.165Z,5.63
2024-03-16T09:13:28.449Z,3.58
2024-03-16T09:15:55.678Z,11.15
2024-03-16T09:18:23.567Z,13.15
2024-03-16T09:20:51.685Z,4.13
2024-03-16T09:23:18.486Z,24.85
2024-03-16T09:25:48.153Z,8.10
2024-03-16T09:28:15.428Z,3.28
2024-03-16T09:30:46.637Z,3.10
2024-03-16T09:33:14.096Z,3.75
2024-03-16T09:35:43.373Z,2.67
2024-03-16T09:38:11.513Z,4.43
2024-03-16T09:40:44.375Z,2.40
